Aérodrome :







RETROUVEZ-NOUS SUR...

 
LOGIN :

S'inscrire | Disclaimer

   EN    FR    IT 

 









Légende :    VFR   VFR Marginal   IFR   IFR Intensif   IFR Très Intensif
Visi : 
Plafond : 
>= 8 km
>= 3000ft
5 à 8 km
1000 à 3000 ft
1500m à 5 km
500 à 1000 ft
800 à 1500m
200 à 500 ft
< 800m
< 200 ft
Symboles :   Orages  Brouillard  Fortes neiges  Fortes précipitations  Vent > 20 kt






- Altitude de l'aérodrome : 68 ft
- Code IATA : YFC


CYFC - Fredericton

DERNIER METAR :
  • 230157Z AUTO 25008KT 9SM -RA OVC036 02/02 A2934 RMK SLP939

METARs EXPIRÉS :
  • 230132Z AUTO 24006KT 9SM -RA FEW017 OVC034 02/02 A2935 RMK SLP942
  • 230109Z AUTO 24008KT 9SM -RA SCT017 OVC026 03/02 A2935 RMK SLP943
  • 230100Z AUTO 25007KT 9SM -RA FEW017 OVC024 03/02 A2935 RMK SLP943
  • 230041Z AUTO 28008G16KT 240V310 6SM -RA BR FEW013 OVC024 03/02 A2935 RMK SLP942
  • 230035Z AUTO 27009G15KT 5SM RA BR FEW016 OVC024 03/03 A2935 RMK SLP943
  • 230000Z AUTO 25008G16KT 6SM -RA BR FEW013 SCT019 OVC031 04/04 A2934 RMK PCPN 1.8MM PAST HR SLP939
  • 222300Z AUTO 21008KT 9SM -RA OVC039 06/05 A2934 RMK SLP938

TAF TAF CYFC
Valide du 23 à 00h jusqu'au 23 à 12h UTC


222339Z 2300/2312 21010KT P6SM -RA FEW008 OVC040
TEMPO 2300/2303 2SM RA BR OVC008
FM230300 26012G22KT P6SM BKN020
TEMPO 2304/2308 3SM -SHSNRA
FM230800 29018G28KT P6SM BKN025 RMK FCST BASED ON AUTO OBS. NXT FCST BY 230600Z



MET'MAP, la Météo Aéronautique d'un coup d'oeil ! - Copyright ORBIFLY Décembre 2007 - Disclaimer

ORBIFLY MET'MAP TEAM :

Programmation & Développement : Alexandra Zaïnal
Conception & Développement : Baudouin d'Aumeries
Co-Programmation & Développement : Marc-Olivier Méhu
Soutien technique & logistique : Manuel Goepfert

Contact : metmap@orbifly.com




SOURCES & CREDITS :

   NOAA